createdAt,value
2023-04-30T00:00:32.466Z,15.27
2023-04-30T00:02:59.703Z,15.30
2023-04-30T00:05:27.077Z,15.35
2023-04-30T00:08:00.053Z,15.38
2023-04-30T00:10:27.645Z,15.41
2023-04-30T00:12:55.035Z,15.34
2023-04-30T00:15:22.213Z,15.35
2023-04-30T00:17:49.461Z,15.37
2023-04-30T00:20:18.617Z,15.38
2023-04-30T00:22:45.989Z,15.34
2023-04-30T00:25:13.198Z,15.38
2023-04-30T00:27:41.091Z,15.37
2023-04-30T00:30:08.966Z,15.37
2023-04-30T00:32:36.219Z,15.37
2023-04-30T00:35:03.873Z,15.33
2023-04-30T00:37:31.245Z,15.34
2023-04-30T00:39:58.419Z,15.24
2023-04-30T00:42:25.602Z,15.25
2023-04-30T00:44:53.472Z,15.19
2023-04-30T00:47:20.954Z,15.11
2023-04-30T00:49:48.450Z,15.12
2023-04-30T00:52:16.020Z,15.10
2023-04-30T00:54:43.444Z,15.15
2023-04-30T00:57:16.229Z,15.18
2023-04-30T00:59:43.677Z,15.18
2023-04-30T01:02:11.409Z,15.14
2023-04-30T01:04:39.722Z,15.10
2023-04-30T01:07:07.528Z,15.01
2023-04-30T01:09:35.322Z,15.05
2023-04-30T01:12:37.778Z,15.07
2023-04-30T01:15:39.157Z,15.11
2023-04-30T01:18:13.956Z,15.09
2023-04-30T01:20:51.274Z,15.07
2023-04-30T01:24:01.780Z,14.89
2023-04-30T01:27:07.597Z,14.90
2023-04-30T01:29:37.251Z,14.83
2023-04-30T01:32:05.264Z,14.82
2023-04-30T01:34:32.718Z,14.73
2023-04-30T01:37:27.173Z,14.82
2023-04-30T01:40:24.699Z,14.71
2023-04-30T01:43:20.596Z,14.77
2023-04-30T01:46:20.626Z,14.75
2023-04-30T01:49:33.900Z,14.70
2023-04-30T01:52:40.890Z,14.65
2023-04-30T01:55:37.168Z,14.69
2023-04-30T01:58:10.435Z,14.53
2023-04-30T02:00:38.759Z,14.36
2023-04-30T02:03:07.528Z,14.37
2023-04-30T02:05:35.188Z,14.37
2023-04-30T02:08:03.501Z,14.33
2023-04-30T02:10:30.997Z,14.39
2023-04-30T02:12:58.270Z,14.41
2023-04-30T02:15:25.649Z,14.47
2023-04-30T02:17:52.966Z,14.45
2023-04-30T02:20:21.277Z,14.46
2023-04-30T02:22:48.911Z,14.48
2023-04-30T02:25:16.171Z,14.45
2023-04-30T02:27:43.373Z,14.47
2023-04-30T02:30:10.735Z,14.38
2023-04-30T02:32:38.033Z,14.46
2023-04-30T02:35:06.353Z,14.46
2023-04-30T02:37:34.009Z,14.50
2023-04-30T02:40:01.178Z,14.44
2023-04-30T02:42:28.712Z,14.37
2023-04-30T02:44:56.198Z,14.35
2023-04-30T02:47:23.366Z,14.36
2023-04-30T02:49:50.515Z,14.38
2023-04-30T02:52:18.192Z,14.36
2023-04-30T02:54:45.520Z,14.33
2023-04-30T02:57:12.703Z,14.34
2023-04-30T02:59:40.047Z,14.25
2023-04-30T03:02:07.686Z,14.04
2023-04-30T03:04:34.957Z,13.92
2023-04-30T03:07:03.563Z,14.00
2023-04-30T03:09:32.190Z,13.95
2023-04-30T03:11:59.324Z,13.74
2023-04-30T03:14:26.462Z,13.75
2023-04-30T03:16:53.841Z,13.81
2023-04-30T03:19:25.273Z,13.89
2023-04-30T03:21:54.445Z,13.83
2023-04-30T03:24:22.324Z,13.90
2023-04-30T03:26:49.626Z,13.93
2023-04-30T03:29:17.463Z,13.79
2023-04-30T03:31:45.103Z,13.82
2023-04-30T03:34:12.451Z,13.86
2023-04-30T03:36:45.126Z,13.84
2023-04-30T03:39:12.782Z,13.85
2023-04-30T03:41:39.928Z,13.80
2023-04-30T03:44:08.672Z,13.80
2023-04-30T03:46:35.941Z,13.76
2023-04-30T03:49:03.694Z,13.80
2023-04-30T03:51:31.665Z,13.80
2023-04-30T03:53:59.107Z,13.79
2023-04-30T03:56:26.951Z,13.81
2023-04-30T03:58:55.219Z,13.83
2023-04-30T04:01:22.485Z,13.70
2023-04-30T04:03:50.236Z,13.66
2023-04-30T04:06:21.441Z,13.59
2023-04-30T04:08:52.096Z,13.61
2023-04-30T04:11:19.334Z,13.52
2023-04-30T04:13:47.076Z,13.59
2023-04-30T04:16:15.191Z,13.48
2023-04-30T04:18:42.714Z,13.55
2023-04-30T04:21:10.274Z,13.54
2023-04-30T04:23:37.798Z,13.57
2023-04-30T04:26:05.186Z,13.57
2023-04-30T04:28:33.009Z,13.72
2023-04-30T04:31:00.401Z,13.61
2023-04-30T04:33:27.889Z,13.72
2023-04-30T04:35:57.818Z,13.71
2023-04-30T04:38:26.282Z,13.76
2023-04-30T04:40:55.747Z,13.76
2023-04-30T04:43:23.805Z,13.66
2023-04-30T04:45:52.249Z,13.72
2023-04-30T04:48:19.395Z,13.78
2023-04-30T04:50:46.471Z,13.80
2023-04-30T04:53:14.108Z,13.72
2023-04-30T04:55:41.314Z,13.85
2023-04-30T04:58:08.483Z,13.85
2023-04-30T05:00:35.717Z,13.80
2023-04-30T05:03:03.863Z,13.83
2023-04-30T05:05:32.263Z,13.87
2023-04-30T05:08:00.024Z,13.99
2023-04-30T05:10:27.463Z,14.04
2023-04-30T05:12:54.630Z,14.01
2023-04-30T05:15:22.206Z,13.91
2023-04-30T05:17:49.624Z,13.79
2023-04-30T05:20:22.796Z,13.89
2023-04-30T05:22:50.439Z,13.80
2023-04-30T05:25:18.957Z,13.99
2023-04-30T05:27:46.544Z,14.18
2023-04-30T05:30:15.963Z,14.16
2023-04-30T05:32:50.665Z,14.32
2023-04-30T05:35:20.158Z,14.41
2023-04-30T05:37:48.054Z,14.38
2023-04-30T05:40:15.530Z,14.42
2023-04-30T05:42:46.312Z,14.44
2023-04-30T05:45:17.152Z,14.15
2023-04-30T05:47:44.585Z,14.19
2023-04-30T05:50:12.342Z,14.12
2023-04-30T05:52:39.800Z,14.35
2023-04-30T05:55:08.318Z,14.52
2023-04-30T05:57:35.648Z,14.57
2023-04-30T06:00:03.425Z,14.84
2023-04-30T06:02:40.108Z,15.14
2023-04-30T06:05:09.154Z,15.07
2023-04-30T06:07:36.748Z,15.08
2023-04-30T06:10:06.189Z,15.35
2023-04-30T06:12:33.460Z,15.60
2023-04-30T06:15:00.955Z,15.80
2023-04-30T06:17:28.703Z,15.34
2023-04-30T06:19:58.444Z,15.35
2023-04-30T06:22:26.762Z,15.83
2023-04-30T06:24:54.152Z,16.12
2023-04-30T06:27:23.527Z,16.08
2023-04-30T06:29:57.064Z,15.95
2023-04-30T06:32:24.365Z,16.02
2023-04-30T06:34:51.880Z,16.08
2023-04-30T06:37:19.272Z,16.39
2023-04-30T06:39:46.455Z,15.99
2023-04-30T06:42:13.699Z,16.01
2023-04-30T06:44:40.824Z,15.31
2023-04-30T06:47:09.172Z,16.10
2023-04-30T06:49:44.946Z,15.49
2023-04-30T06:52:12.941Z,16.06
2023-04-30T06:54:40.554Z,16.49
2023-04-30T06:57:07.919Z,16.66
2023-04-30T06:59:35.088Z,16.56
2023-04-30T07:02:03.240Z,16.35
2023-04-30T07:04:31.149Z,15.65
2023-04-30T07:07:04.575Z,15.76
2023-04-30T07:09:32.390Z,16.02
2023-04-30T07:11:59.842Z,16.67
2023-04-30T07:14:27.501Z,17.06
2023-04-30T07:16:56.243Z,17.07
2023-04-30T07:19:26.908Z,17.08
2023-04-30T07:21:54.727Z,16.80
2023-04-30T07:24:22.433Z,17.29
2023-04-30T07:26:49.853Z,17.47
2023-04-30T07:29:18.372Z,17.42
2023-04-30T07:31:45.892Z,17.63
2023-04-30T07:34:18.735Z,18.00
2023-04-30T07:36:48.452Z,18.18
2023-04-30T07:39:15.718Z,17.97
2023-04-30T07:41:43.121Z,18.34
2023-04-30T07:44:11.980Z,18.55
2023-04-30T07:46:39.601Z,17.88
2023-04-30T07:49:06.830Z,17.78
2023-04-30T07:51:34.160Z,18.34
2023-04-30T07:54:01.549Z,18.46
2023-04-30T07:56:28.805Z,18.71
2023-04-30T07:58:56.016Z,18.90
2023-04-30T08:01:23.397Z,18.50
2023-04-30T08:03:50.651Z,18.46
2023-04-30T08:06:18.176Z,18.43
2023-04-30T08:08:45.960Z,18.94
2023-04-30T08:11:13.327Z,19.30
2023-04-30T08:13:41.985Z,19.05
2023-04-30T08:16:09.658Z,18.05
2023-04-30T08:18:38.970Z,18.07
2023-04-30T08:21:06.752Z,18.69
2023-04-30T08:23:37.236Z,18.89
2023-04-30T08:26:05.194Z,18.92
2023-04-30T08:28:32.671Z,18.54
2023-04-30T08:31:00.166Z,18.63
2023-04-30T08:33:27.464Z,18.99
2023-04-30T08:35:54.853Z,19.25
2023-04-30T08:38:21.935Z,19.63
2023-04-30T08:41:06.964Z,19.42
2023-04-30T08:43:35.620Z,19.26
2023-04-30T08:46:05.393Z,19.71
2023-04-30T08:48:33.752Z,19.11
2023-04-30T08:51:05.243Z,19.75
2023-04-30T08:53:37.899Z,20.07
2023-04-30T08:56:06.399Z,20.46
2023-04-30T08:58:33.772Z,19.81
2023-04-30T09:01:02.827Z,19.76
2023-04-30T09:03:31.627Z,18.76
2023-04-30T09:06:25.068Z,18.43
2023-04-30T09:08:54.281Z,19.10
2023-04-30T09:11:31.920Z,18.59
2023-04-30T09:14:02.581Z,18.47
2023-04-30T09:16:49.414Z,19.18
2023-04-30T09:19:31.525Z,19.10
2023-04-30T09:21:59.485Z,19.09
2023-04-30T09:24:27.077Z,19.98
2023-04-30T09:26:54.447Z,19.84
2023-04-30T09:29:22.254Z,19.77
2023-04-30T09:31:49.790Z,19.30
2023-04-30T09:34:35.869Z,19.61
2023-04-30T09:37:04.061Z,19.52
2023-04-30T09:39:31.391Z,19.46
2023-04-30T09:42:10.216Z,18.09
2023-04-30T09:44:41.026Z,18.26
2023-04-30T09:47:21.180Z,18.82
2023-04-30T09:49:54.440Z,18.97
2023-04-30T09:52:22.226Z,18.56
2023-04-30T09:54:49.565Z,19.27
2023-04-30T09:57:17.124Z,19.80
2023-04-30T09:59:47.028Z,19.55
2023-04-30T10:02:17.268Z,19.65
2023-04-30T10:04:49.676Z,19.69
2023-04-30T10:07:28.469Z,19.97
2023-04-30T10:10:10.143Z,20.40
2023-04-30T10:12:48.706Z,20.03
2023-04-30T10:15:28.651Z,20.70
2023-04-30T10:18:09.459Z,20.96
2023-04-30T10:20:39.334Z,21.12
2023-04-30T10:23:08.418Z,20.82
2023-04-30T10:25:41.009Z,20.91
2023-04-30T10:28:14.064Z,21.84
2023-04-30T10:30:45.781Z,21.21
2023-04-30T10:33:35.167Z,21.55
2023-04-30T10:36:12.201Z,20.18
2023-04-30T10:38:40.785Z,20.54
2023-04-30T10:41:09.775Z,20.78
2023-04-30T10:43:39.805Z,20.77
2023-04-30T10:46:09.159Z,20.53
2023-04-30T10:48:36.455Z,20.68
2023-04-30T10:51:04.627Z,21.08
2023-04-30T10:53:32.722Z,21.38
2023-04-30T10:56:09.289Z,21.52
2023-04-30T10:58:43.406Z,21.17
2023-04-30T11:01:17.504Z,20.28
2023-04-30T11:04:11.387Z,20.64
2023-04-30T11:06:54.102Z,20.78
2023-04-30T11:09:42.978Z,21.42
2023-04-30T11:12:28.597Z,21.40
2023-04-30T11:15:16.809Z,21.21
2023-04-30T11:17:46.246Z,20.97
2023-04-30T11:20:21.043Z,21.11
2023-04-30T11:22:49.940Z,21.56
2023-04-30T11:25:22.552Z,21.83
2023-04-30T11:27:50.317Z,21.49
2023-04-30T11:30:18.535Z,21.02
2023-04-30T11:32:50.281Z,21.54
2023-04-30T11:35:19.733Z,21.98
2023-04-30T11:37:48.935Z,21.88
2023-04-30T11:40:16.249Z,21.09
2023-04-30T11:42:46.020Z,20.50
2023-04-30T11:45:17.854Z,21.00
2023-04-30T11:47:52.042Z,20.90
2023-04-30T11:50:30.201Z,21.17
2023-04-30T11:53:03.300Z,20.69
2023-04-30T11:55:30.788Z,20.40
2023-04-30T11:57:59.914Z,20.87
2023-04-30T12:00:29.909Z,21.28
2023-04-30T12:03:03.739Z,21.11
2023-04-30T12:05:31.763Z,21.62
2023-04-30T12:08:09.493Z,21.03
2023-04-30T12:10:37.227Z,21.73
2023-04-30T12:13:04.518Z,21.49
2023-04-30T12:15:33.156Z,21.43
2023-04-30T12:18:11.633Z,22.53
2023-04-30T12:20:40.732Z,23.32
2023-04-30T12:23:09.366Z,23.26
2023-04-30T12:25:43.888Z,22.37
2023-04-30T12:28:15.716Z,20.64
2023-04-30T12:30:43.771Z,20.88
2023-04-30T12:33:11.862Z,21.85
2023-04-30T12:35:44.164Z,21.33
2023-04-30T12:38:16.627Z,21.60
2023-04-30T12:40:48.995Z,22.21
2023-04-30T12:43:18.629Z,22.55
2023-04-30T12:45:58.456Z,22.56
2023-04-30T12:48:26.129Z,23.24
2023-04-30T12:51:01.442Z,23.83
2023-04-30T12:53:29.880Z,24.92
2023-04-30T12:56:17.670Z,24.79
2023-04-30T12:58:49.731Z,25.10
2023-04-30T13:01:26.232Z,24.91
2023-04-30T13:03:54.097Z,25.00
2023-04-30T13:06:23.596Z,25.46
2023-04-30T13:08:58.633Z,25.45
2023-04-30T13:11:27.358Z,22.14
2023-04-30T13:13:56.165Z,24.19
2023-04-30T13:16:27.398Z,24.26
2023-04-30T13:18:55.218Z,22.21
2023-04-30T13:21:24.965Z,22.63
2023-04-30T13:23:54.556Z,23.13
2023-04-30T13:26:23.611Z,23.19
2023-04-30T13:28:51.633Z,24.39
2023-04-30T13:31:19.719Z,24.11
2023-04-30T13:33:47.004Z,22.77
2023-04-30T13:36:15.036Z,22.99
2023-04-30T13:38:43.388Z,22.62
2023-04-30T13:41:14.112Z,21.71
2023-04-30T13:43:42.695Z,21.82
2023-04-30T13:46:10.560Z,22.16
2023-04-30T13:48:38.142Z,22.22
2023-04-30T13:51:05.603Z,23.09
2023-04-30T13:53:32.850Z,24.81
2023-04-30T13:56:00.233Z,24.94
2023-04-30T13:58:27.847Z,25.43
2023-04-30T14:00:55.451Z,24.71
2023-04-30T14:03:22.876Z,24.34
2023-04-30T14:05:50.473Z,23.56
2023-04-30T14:08:17.903Z,23.96
2023-04-30T14:10:45.246Z,24.56
2023-04-30T14:13:12.440Z,23.29
2023-04-30T14:15:39.650Z,23.18
2023-04-30T14:18:07.266Z,22.84
2023-04-30T14:20:37.494Z,22.36
2023-04-30T14:23:06.532Z,21.94
2023-04-30T14:25:33.759Z,22.91
2023-04-30T14:28:01.332Z,23.54
2023-04-30T14:30:29.240Z,23.66
2023-04-30T14:32:56.649Z,23.40
2023-04-30T14:35:27.208Z,24.09
2023-04-30T14:37:54.627Z,23.53
2023-04-30T14:40:22.107Z,24.26
2023-04-30T14:42:50.473Z,24.37
2023-04-30T14:45:18.074Z,24.16
2023-04-30T14:47:45.299Z,24.10
2023-04-30T14:50:13.238Z,24.60
2023-04-30T14:52:42.104Z,23.63
2023-04-30T14:55:09.703Z,24.63
2023-04-30T14:57:37.010Z,24.55
2023-04-30T15:00:04.685Z,25.07
2023-04-30T15:02:32.436Z,23.96
2023-04-30T15:04:59.918Z,23.98
2023-04-30T15:07:29.083Z,24.22
2023-04-30T15:09:56.736Z,22.64
2023-04-30T15:12:24.172Z,24.07
2023-04-30T15:14:57.356Z,24.23
2023-04-30T15:17:25.068Z,25.06
2023-04-30T15:19:53.670Z,25.88
2023-04-30T15:22:21.341Z,25.65
2023-04-30T15:24:48.503Z,26.48
2023-04-30T15:27:15.763Z,26.97
2023-04-30T15:29:43.052Z,27.23
2023-04-30T15:32:10.478Z,25.29
2023-04-30T15:34:37.922Z,25.34
2023-04-30T15:37:05.910Z,24.53
2023-04-30T15:39:33.185Z,23.99
2023-04-30T15:42:00.526Z,24.91
2023-04-30T15:44:27.938Z,26.44
2023-04-30T15:46:58.542Z,26.27
2023-04-30T15:49:25.947Z,25.40
2023-04-30T15:51:53.374Z,25.45
2023-04-30T15:54:20.938Z,26.02
2023-04-30T15:56:48.164Z,26.51
2023-04-30T15:59:17.742Z,26.32
2023-04-30T16:01:46.503Z,26.77
2023-04-30T16:04:13.899Z,26.81
2023-04-30T16:06:41.638Z,26.57
2023-04-30T16:09:09.393Z,25.55
2023-04-30T16:11:36.872Z,24.80
2023-04-30T16:14:04.734Z,23.66
2023-04-30T16:16:32.251Z,22.37
2023-04-30T16:18:59.546Z,21.66
2023-04-30T16:21:29.181Z,22.68
2023-04-30T16:23:57.018Z,23.15
2023-04-30T16:26:24.486Z,22.62
2023-04-30T16:28:52.153Z,23.03
2023-04-30T16:31:22.764Z,23.16
2023-04-30T16:33:50.033Z,22.90
2023-04-30T16:36:17.528Z,23.02
2023-04-30T16:38:46.413Z,22.95
2023-04-30T16:41:16.847Z,22.72
2023-04-30T16:43:44.596Z,22.40
2023-04-30T16:46:12.250Z,21.64
2023-04-30T16:48:39.602Z,21.40
2023-04-30T16:51:07.652Z,20.99
2023-04-30T16:53:35.132Z,20.54
2023-04-30T16:56:02.288Z,20.97
2023-04-30T16:58:29.579Z,20.88
2023-04-30T17:00:57.077Z,19.95
2023-04-30T17:03:25.069Z,20.21
2023-04-30T17:05:53.425Z,20.85
2023-04-30T17:08:21.412Z,20.01
2023-04-30T17:10:49.042Z,19.75
2023-04-30T17:13:16.292Z,20.36
2023-04-30T17:15:44.544Z,20.34
2023-04-30T17:18:13.000Z,20.23
2023-04-30T17:20:41.377Z,20.22
2023-04-30T17:23:08.643Z,19.99
2023-04-30T17:25:43.095Z,19.64
2023-04-30T17:28:10.372Z,20.05
2023-04-30T17:30:44.484Z,19.58
2023-04-30T17:33:11.703Z,19.75
2023-04-30T17:35:38.983Z,19.77
2023-04-30T17:38:06.592Z,19.98
2023-04-30T17:40:34.146Z,19.27
2023-04-30T17:43:01.397Z,19.47
2023-04-30T17:45:29.669Z,19.57
2023-04-30T17:47:59.405Z,19.64
2023-04-30T17:50:27.072Z,19.71
2023-04-30T17:52:54.351Z,19.74
2023-04-30T17:55:21.974Z,19.67
2023-04-30T17:57:49.277Z,19.59
2023-04-30T18:00:17.368Z,19.36
2023-04-30T18:02:45.885Z,19.29
2023-04-30T18:05:13.322Z,19.10
2023-04-30T18:07:41.280Z,19.06
2023-04-30T18:10:09.490Z,18.97
2023-04-30T18:12:36.992Z,18.91
2023-04-30T18:15:08.354Z,18.91
2023-04-30T18:17:37.221Z,18.91
2023-04-30T18:20:05.991Z,18.81
2023-04-30T18:22:33.094Z,18.80
2023-04-30T18:25:00.365Z,18.63
2023-04-30T18:27:27.655Z,18.58
2023-04-30T18:29:56.730Z,18.54
2023-04-30T18:32:24.272Z,18.45
2023-04-30T18:34:52.250Z,18.39
2023-04-30T18:37:20.814Z,18.27
2023-04-30T18:39:47.959Z,18.21
2023-04-30T18:42:15.201Z,18.03
2023-04-30T18:44:42.410Z,18.07
2023-04-30T18:47:09.809Z,18.02
2023-04-30T18:49:37.130Z,17.99
2023-04-30T18:52:04.754Z,17.78
2023-04-30T18:54:32.048Z,17.68
2023-04-30T18:56:59.253Z,17.59
2023-04-30T18:59:27.429Z,17.62
2023-04-30T19:01:55.871Z,17.42
2023-04-30T19:04:28.834Z,17.28
2023-04-30T19:06:56.049Z,17.29
2023-04-30T19:09:23.622Z,17.26
2023-04-30T19:11:51.356Z,17.26
2023-04-30T19:14:19.243Z,17.13
2023-04-30T19:16:46.853Z,17.05
2023-04-30T19:19:14.301Z,17.01
2023-04-30T19:21:41.883Z,16.96
2023-04-30T19:24:09.591Z,16.91
2023-04-30T19:26:37.960Z,16.70
2023-04-30T19:29:05.456Z,16.70
2023-04-30T19:31:35.179Z,16.64
2023-04-30T19:34:02.490Z,16.56
2023-04-30T19:36:29.743Z,16.39
2023-04-30T19:38:56.980Z,16.34
2023-04-30T19:41:24.559Z,16.19
2023-04-30T19:43:53.455Z,16.06
2023-04-30T19:46:21.085Z,15.86
2023-04-30T19:48:49.125Z,15.73
2023-04-30T19:51:16.548Z,15.81
2023-04-30T19:53:44.368Z,15.74
2023-04-30T19:56:11.612Z,15.50
2023-04-30T19:58:39.253Z,15.51
2023-04-30T20:01:06.740Z,15.49
2023-04-30T20:03:35.591Z,15.47
2023-04-30T20:06:04.617Z,15.34
2023-04-30T20:08:32.148Z,15.33
2023-04-30T20:11:00.389Z,15.31
2023-04-30T20:13:28.593Z,15.17
2023-04-30T20:15:55.871Z,15.13
2023-04-30T20:18:23.093Z,15.16
2023-04-30T20:20:50.754Z,14.97
2023-04-30T20:23:20.552Z,14.89
2023-04-30T20:25:49.974Z,14.71
2023-04-30T20:28:19.009Z,14.81
2023-04-30T20:30:48.052Z,14.81
2023-04-30T20:33:15.623Z,14.68
2023-04-30T20:35:45.708Z,14.69
2023-04-30T20:38:14.567Z,14.68
2023-04-30T20:40:42.282Z,14.59
2023-04-30T20:43:11.090Z,14.53
2023-04-30T20:45:40.809Z,14.52
2023-04-30T20:48:09.131Z,14.35
2023-04-30T20:50:37.411Z,14.18
2023-04-30T20:53:04.890Z,14.22
2023-04-30T20:55:32.220Z,14.18
2023-04-30T20:57:59.415Z,14.06
2023-04-30T21:00:27.664Z,14.04
2023-04-30T21:02:55.125Z,13.97
2023-04-30T21:05:22.912Z,13.99
2023-04-30T21:07:50.962Z,13.73
2023-04-30T21:10:18.790Z,13.75
2023-04-30T21:12:46.294Z,13.73
2023-04-30T21:15:14.041Z,13.70
2023-04-30T21:17:41.767Z,13.76
2023-04-30T21:20:10.104Z,13.77
2023-04-30T21:22:39.181Z,13.77
2023-04-30T21:25:07.507Z,13.83
2023-04-30T21:27:35.092Z,13.73
2023-04-30T21:30:02.948Z,13.74
2023-04-30T21:32:30.481Z,13.63
2023-04-30T21:34:58.581Z,13.59
2023-04-30T21:37:25.825Z,13.56
2023-04-30T21:39:56.187Z,13.58
2023-04-30T21:42:24.041Z,13.57
2023-04-30T21:44:51.233Z,13.52
2023-04-30T21:47:20.940Z,13.42
2023-04-30T21:49:48.272Z,13.18
2023-04-30T21:52:15.859Z,13.15
2023-04-30T21:54:43.401Z,13.11
2023-04-30T21:57:11.106Z,13.09
2023-04-30T21:59:38.596Z,13.12
2023-04-30T22:02:16.553Z,13.18
2023-04-30T22:04:50.272Z,13.17
2023-04-30T22:07:43.410Z,13.08
2023-04-30T22:10:11.472Z,12.95
2023-04-30T22:12:38.623Z,13.08
2023-04-30T22:15:07.763Z,13.06
2023-04-30T22:17:35.321Z,12.99
2023-04-30T22:20:03.118Z,12.88
2023-04-30T22:22:31.614Z,12.80
2023-04-30T22:24:59.515Z,12.78
2023-04-30T22:27:26.783Z,12.69
2023-04-30T22:29:54.782Z,12.81
2023-04-30T22:32:22.775Z,12.65
2023-04-30T22:34:50.775Z,12.56
2023-04-30T22:37:18.426Z,12.45
2023-04-30T22:39:47.110Z,12.55
2023-04-30T22:42:15.570Z,12.49
2023-04-30T22:44:44.682Z,12.57
2023-04-30T22:47:12.317Z,12.57
2023-04-30T22:49:40.058Z,12.57
2023-04-30T22:52:07.290Z,12.67
2023-04-30T22:54:35.354Z,12.64
2023-04-30T22:57:03.037Z,12.63
2023-04-30T22:59:30.238Z,12.68
2023-04-30T23:02:03.693Z,12.71
2023-04-30T23:04:32.642Z,12.81
2023-04-30T23:07:00.809Z,12.78
2023-04-30T23:09:29.288Z,12.85
2023-04-30T23:11:57.198Z,12.81
2023-04-30T23:14:24.500Z,12.81
2023-04-30T23:16:52.456Z,12.79
2023-04-30T23:19:20.551Z,12.76
2023-04-30T23:21:48.451Z,12.73
2023-04-30T23:24:15.914Z,12.69
2023-04-30T23:26:44.207Z,12.61
2023-04-30T23:29:11.818Z,12.65
2023-04-30T23:31:40.192Z,12.60
2023-04-30T23:34:07.388Z,12.60
2023-04-30T23:36:34.569Z,12.56
2023-04-30T23:39:01.898Z,12.52
2023-04-30T23:41:29.151Z,12.59
2023-04-30T23:43:56.404Z,12.56
2023-04-30T23:46:24.831Z,12.52
2023-04-30T23:48:52.433Z,12.53
2023-04-30T23:51:21.623Z,12.51
2023-04-30T23:53:49.408Z,12.43
2023-04-30T23:56:17.285Z,12.45
2023-04-30T23:58:44.448Z,12.41
